CheckWX is a tool to help pilots better visualize weather data.  It is not intended as a substitute for an official pre-flight weather briefing.

06:58:59 UTC

M40 METAR
Monroe County Airport
Aberdeen/Amory, Mississippi, USA
Current

24 mins ago

KM40 190635Z AUTO 00000KT 9SM CLR 20/17 A2987 RMK AO2
Observed
Jun-19 @ 06:35 UTC
Visibility
9 SM
Flight Rules
VFR
Cloud Levels
  • Clear skies
Temperature
20°C / 68°F
Dewpoint
17°C / 63°F
Humidity
83%
Altimeter
29.87" Hg
Pressure
1011.52 hPa
Previous

44 mins ago

KM40 190615Z AUTO 00000KT 6SM HZ FEW080 20/18 A2987 RMK AO2
Observed
Jun-19 @ 06:15 UTC
Visibility
6 SM
Flight Rules
VFR
Conditions
Haze
Cloud Levels
  • Few at 8,000' AGL
Temperature
20°C / 68°F
Dewpoint
18°C / 64°F
Humidity
88%
Altimeter
29.87" Hg
Pressure
1011.52 hPa
Previous

1 hour ago

KM40 190555Z AUTO 00000KT 10SM BKN075 21/19 A2987 RMK AO2
Observed
Jun-19 @ 05:55 UTC
Visibility
10 SM
Flight Rules
VFR
Cloud Levels
  • Broken at 7,500' AGL
Temperature
21°C / 70°F
Dewpoint
19°C / 66°F
Humidity
88%
Altimeter
29.87" Hg
Pressure
1011.52 hPa